sensor_id;sensor_type;location;lat;lon;timestamp;P1;durP1;ratioP1;P2;durP2;ratioP2
47589;SDS011;33316;52.298;9.056;2022-11-20T00:01:14;11.32;;;6.40;;
47589;SDS011;33316;52.298;9.056;2022-11-20T00:03:42;9.57;;;6.38;;
47589;SDS011;33316;52.298;9.056;2022-11-20T00:06:12;13.68;;;6.93;;
47589;SDS011;33316;52.298;9.056;2022-11-20T00:08:43;16.38;;;6.55;;
47589;SDS011;33316;52.298;9.056;2022-11-20T00:11:10;8.45;;;5.50;;
47589;SDS011;33316;52.298;9.056;2022-11-20T00:13:38;9.10;;;6.03;;
47589;SDS011;33316;52.298;9.056;2022-11-20T00:16:06;11.50;;;6.57;;
47589;SDS011;33316;52.298;9.056;2022-11-20T00:18:35;12.05;;;6.70;;
47589;SDS011;33316;52.298;9.056;2022-11-20T00:21:05;11.95;;;6.78;;
47589;SDS011;33316;52.298;9.056;2022-11-20T00:23:35;11.18;;;6.60;;
47589;SDS011;33316;52.298;9.056;2022-11-20T00:26:02;10.40;;;6.57;;
47589;SDS011;33316;52.298;9.056;2022-11-20T00:28:29;12.80;;;7.03;;
47589;SDS011;33316;52.298;9.056;2022-11-20T00:31:00;11.63;;;6.95;;
47589;SDS011;33316;52.298;9.056;2022-11-20T00:33:28;11.98;;;6.40;;
47589;SDS011;33316;52.298;9.056;2022-11-20T00:35:58;11.02;;;6.70;;
47589;SDS011;33316;52.298;9.056;2022-11-20T00:38:26;10.60;;;5.65;;
47589;SDS011;33316;52.298;9.056;2022-11-20T00:40:55;9.88;;;6.10;;
47589;SDS011;33316;52.298;9.056;2022-11-20T00:43:23;7.85;;;4.60;;
47589;SDS011;33316;52.298;9.056;2022-11-20T00:45:50;10.10;;;5.80;;
47589;SDS011;33316;52.298;9.056;2022-11-20T00:48:20;9.65;;;6.57;;
47589;SDS011;33316;52.298;9.056;2022-11-20T00:50:46;10.63;;;6.07;;
47589;SDS011;33316;52.298;9.056;2022-11-20T00:53:13;10.55;;;5.95;;
47589;SDS011;33316;52.298;9.056;2022-11-20T00:55:40;11.20;;;6.47;;
47589;SDS011;33316;52.298;9.056;2022-11-20T00:58:08;8.07;;;6.03;;
47589;SDS011;33316;52.298;9.056;2022-11-20T01:00:37;11.63;;;5.80;;
47589;SDS011;33316;52.298;9.056;2022-11-20T01:03:04;7.20;;;5.07;;
47589;SDS011;33316;52.298;9.056;2022-11-20T01:05:33;13.45;;;6.22;;
47589;SDS011;33316;52.298;9.056;2022-11-20T01:08:01;9.93;;;5.60;;
47589;SDS011;33316;52.298;9.056;2022-11-20T01:10:27;11.00;;;6.38;;
47589;SDS011;33316;52.298;9.056;2022-11-20T01:12:54;9.55;;;5.80;;
47589;SDS011;33316;52.298;9.056;2022-11-20T01:15:36;10.75;;;5.93;;
47589;SDS011;33316;52.298;9.056;2022-11-20T01:18:03;10.27;;;6.57;;
47589;SDS011;33316;52.298;9.056;2022-11-20T01:20:33;8.98;;;5.82;;
47589;SDS011;33316;52.298;9.056;2022-11-20T01:23:00;10.27;;;5.93;;
47589;SDS011;33316;52.298;9.056;2022-11-20T01:25:27;11.20;;;6.40;;
47589;SDS011;33316;52.298;9.056;2022-11-20T01:27:54;10.07;;;6.07;;
47589;SDS011;33316;52.298;9.056;2022-11-20T01:30:23;10.50;;;6.72;;
47589;SDS011;33316;52.298;9.056;2022-11-20T01:32:51;9.05;;;5.18;;
47589;SDS011;33316;52.298;9.056;2022-11-20T01:35:18;8.82;;;5.43;;
47589;SDS011;33316;52.298;9.056;2022-11-20T01:37:44;8.45;;;5.40;;
47589;SDS011;33316;52.298;9.056;2022-11-20T01:40:11;10.20;;;5.85;;
47589;SDS011;33316;52.298;9.056;2022-11-20T01:42:38;9.00;;;5.95;;
47589;SDS011;33316;52.298;9.056;2022-11-20T01:48:32;8.73;;;5.53;;
47589;SDS011;33316;52.298;9.056;2022-11-20T01:51:03;7.32;;;4.88;;
47589;SDS011;33316;52.298;9.056;2022-11-20T01:53:33;9.43;;;5.25;;
47589;SDS011;33316;52.298;9.056;2022-11-20T01:56:03;9.50;;;5.33;;
47589;SDS011;33316;52.298;9.056;2022-11-20T01:58:35;9.60;;;4.93;;
47589;SDS011;33316;52.298;9.056;2022-11-20T02:01:08;7.40;;;5.22;;
47589;SDS011;33316;52.298;9.056;2022-11-20T02:03:36;8.73;;;5.72;;
47589;SDS011;33316;52.298;9.056;2022-11-20T02:08:36;8.07;;;5.00;;
47589;SDS011;33316;52.298;9.056;2022-11-20T02:11:04;8.27;;;5.00;;
47589;SDS011;33316;52.298;9.056;2022-11-20T02:13:31;8.73;;;5.15;;
47589;SDS011;33316;52.298;9.056;2022-11-20T02:16:16;6.75;;;4.78;;
47589;SDS011;33316;52.298;9.056;2022-11-20T02:18:48;8.35;;;4.75;;
47589;SDS011;33316;52.298;9.056;2022-11-20T02:21:21;8.20;;;4.70;;
47589;SDS011;33316;52.298;9.056;2022-11-20T02:24:04;8.48;;;5.35;;
47589;SDS011;33316;52.298;9.056;2022-11-20T02:26:35;7.13;;;5.13;;
47589;SDS011;33316;52.298;9.056;2022-11-20T02:29:07;7.18;;;4.80;;
47589;SDS011;33316;52.298;9.056;2022-11-20T02:31:36;5.78;;;4.20;;
47589;SDS011;33316;52.298;9.056;2022-11-20T02:34:04;7.93;;;4.60;;
47589;SDS011;33316;52.298;9.056;2022-11-20T02:36:31;9.13;;;4.57;;
47589;SDS011;33316;52.298;9.056;2022-11-20T02:39:00;9.02;;;5.03;;
47589;SDS011;33316;52.298;9.056;2022-11-20T02:41:33;7.43;;;4.57;;
47589;SDS011;33316;52.298;9.056;2022-11-20T02:44:01;7.63;;;4.43;;
47589;SDS011;33316;52.298;9.056;2022-11-20T02:46:29;6.90;;;4.18;;
47589;SDS011;33316;52.298;9.056;2022-11-20T02:48:56;7.38;;;4.47;;
47589;SDS011;33316;52.298;9.056;2022-11-20T02:51:23;7.53;;;4.25;;
47589;SDS011;33316;52.298;9.056;2022-11-20T02:53:50;7.13;;;4.25;;
47589;SDS011;33316;52.298;9.056;2022-11-20T02:56:17;6.78;;;3.80;;
47589;SDS011;33316;52.298;9.056;2022-11-20T02:58:45;8.30;;;4.47;;
47589;SDS011;33316;52.298;9.056;2022-11-20T03:03:41;6.47;;;4.13;;
47589;SDS011;33316;52.298;9.056;2022-11-20T03:06:08;7.07;;;4.13;;
47589;SDS011;33316;52.298;9.056;2022-11-20T03:08:35;6.18;;;4.13;;
47589;SDS011;33316;52.298;9.056;2022-11-20T03:11:02;5.50;;;4.13;;
47589;SDS011;33316;52.298;9.056;2022-11-20T03:13:31;9.18;;;4.45;;
47589;SDS011;33316;52.298;9.056;2022-11-20T03:16:03;7.93;;;4.72;;
47589;SDS011;33316;52.298;9.056;2022-11-20T03:18:35;7.18;;;4.30;;
47589;SDS011;33316;52.298;9.056;2022-11-20T03:21:02;6.72;;;4.07;;
47589;SDS011;33316;52.298;9.056;2022-11-20T03:23:29;5.72;;;4.00;;
47589;SDS011;33316;52.298;9.056;2022-11-20T03:26:06;6.70;;;4.45;;
47589;SDS011;33316;52.298;9.056;2022-11-20T03:28:34;6.88;;;3.50;;
47589;SDS011;33316;52.298;9.056;2022-11-20T03:31:06;5.35;;;3.45;;
47589;SDS011;33316;52.298;9.056;2022-11-20T03:33:34;5.88;;;3.45;;
47589;SDS011;33316;52.298;9.056;2022-11-20T03:36:01;5.55;;;3.83;;
47589;SDS011;33316;52.298;9.056;2022-11-20T03:38:29;4.53;;;3.13;;
47589;SDS011;33316;52.298;9.056;2022-11-20T03:40:58;6.57;;;3.90;;
47589;SDS011;33316;52.298;9.056;2022-11-20T03:43:26;7.43;;;3.83;;
47589;SDS011;33316;52.298;9.056;2022-11-20T03:45:52;5.47;;;3.83;;
47589;SDS011;33316;52.298;9.056;2022-11-20T03:48:21;6.13;;;3.78;;
47589;SDS011;33316;52.298;9.056;2022-11-20T03:50:47;7.05;;;3.92;;
47589;SDS011;33316;52.298;9.056;2022-11-20T03:53:14;5.45;;;3.47;;
47589;SDS011;33316;52.298;9.056;2022-11-20T03:55:42;5.18;;;3.50;;
47589;SDS011;33316;52.298;9.056;2022-11-20T03:58:08;6.28;;;3.60;;
47589;SDS011;33316;52.298;9.056;2022-11-20T04:00:35;5.57;;;3.65;;
47589;SDS011;33316;52.298;9.056;2022-11-20T04:03:03;5.75;;;3.88;;
47589;SDS011;33316;52.298;9.056;2022-11-20T04:05:32;5.00;;;3.85;;
47589;SDS011;33316;52.298;9.056;2022-11-20T04:07:59;4.85;;;3.00;;
47589;SDS011;33316;52.298;9.056;2022-11-20T04:10:26;7.65;;;3.83;;
47589;SDS011;33316;52.298;9.056;2022-11-20T04:12:53;8.43;;;3.65;;
47589;SDS011;33316;52.298;9.056;2022-11-20T04:15:20;5.82;;;3.88;;
47589;SDS011;33316;52.298;9.056;2022-11-20T04:17:46;5.95;;;3.38;;
47589;SDS011;33316;52.298;9.056;2022-11-20T04:20:13;7.53;;;4.15;;
47589;SDS011;33316;52.298;9.056;2022-11-20T04:22:41;6.50;;;3.90;;
47589;SDS011;33316;52.298;9.056;2022-11-20T04:25:08;6.53;;;3.88;;
47589;SDS011;33316;52.298;9.056;2022-11-20T04:27:35;5.28;;;3.58;;
47589;SDS011;33316;52.298;9.056;2022-11-20T04:30:02;7.47;;;4.10;;
47589;SDS011;33316;52.298;9.056;2022-11-20T04:32:29;7.15;;;4.55;;
47589;SDS011;33316;52.298;9.056;2022-11-20T04:34:56;6.35;;;3.67;;
47589;SDS011;33316;52.298;9.056;2022-11-20T04:37:23;8.18;;;3.85;;
47589;SDS011;33316;52.298;9.056;2022-11-20T04:39:51;7.70;;;3.72;;
47589;SDS011;33316;52.298;9.056;2022-11-20T04:42:18;5.97;;;3.60;;
47589;SDS011;33316;52.298;9.056;2022-11-20T04:44:56;7.85;;;3.33;;
47589;SDS011;33316;52.298;9.056;2022-11-20T04:47:23;5.30;;;3.33;;
47589;SDS011;33316;52.298;9.056;2022-11-20T04:49:50;6.95;;;3.17;;
47589;SDS011;33316;52.298;9.056;2022-11-20T04:52:18;7.38;;;3.70;;
47589;SDS011;33316;52.298;9.056;2022-11-20T04:54:45;6.15;;;3.22;;
47589;SDS011;33316;52.298;9.056;2022-11-20T04:57:14;4.32;;;3.17;;
47589;SDS011;33316;52.298;9.056;2022-11-20T04:59:41;6.40;;;3.80;;
47589;SDS011;33316;52.298;9.056;2022-11-20T05:02:08;6.22;;;3.63;;
47589;SDS011;33316;52.298;9.056;2022-11-20T05:04:35;5.13;;;3.50;;
47589;SDS011;33316;52.298;9.056;2022-11-20T05:07:01;4.68;;;3.45;;
47589;SDS011;33316;52.298;9.056;2022-11-20T05:09:29;5.90;;;3.42;;
47589;SDS011;33316;52.298;9.056;2022-11-20T05:11:56;6.88;;;3.85;;
47589;SDS011;33316;52.298;9.056;2022-11-20T05:14:24;5.93;;;3.75;;
47589;SDS011;33316;52.298;9.056;2022-11-20T05:16:50;5.75;;;3.25;;
47589;SDS011;33316;52.298;9.056;2022-11-20T05:19:17;5.05;;;2.90;;
47589;SDS011;33316;52.298;9.056;2022-11-20T05:21:44;4.32;;;3.22;;
47589;SDS011;33316;52.298;9.056;2022-11-20T05:24:11;4.75;;;3.33;;
47589;SDS011;33316;52.298;9.056;2022-11-20T05:26:37;5.97;;;3.70;;
47589;SDS011;33316;52.298;9.056;2022-11-20T05:29:04;4.00;;;2.80;;
47589;SDS011;33316;52.298;9.056;2022-11-20T05:31:32;6.65;;;3.60;;
47589;SDS011;33316;52.298;9.056;2022-11-20T05:33:59;4.82;;;3.20;;
47589;SDS011;33316;52.298;9.056;2022-11-20T05:36:26;5.15;;;3.30;;
47589;SDS011;33316;52.298;9.056;2022-11-20T05:38:53;5.47;;;3.38;;
47589;SDS011;33316;52.298;9.056;2022-11-20T05:41:19;7.15;;;3.60;;
47589;SDS011;33316;52.298;9.056;2022-11-20T05:43:47;6.65;;;3.90;;
47589;SDS011;33316;52.298;9.056;2022-11-20T05:46:16;5.20;;;3.65;;
47589;SDS011;33316;52.298;9.056;2022-11-20T05:48:45;6.40;;;3.20;;
47589;SDS011;33316;52.298;9.056;2022-11-20T05:51:14;4.90;;;2.92;;
47589;SDS011;33316;52.298;9.056;2022-11-20T05:53:42;3.90;;;2.92;;
47589;SDS011;33316;52.298;9.056;2022-11-20T05:56:09;4.50;;;3.10;;
47589;SDS011;33316;52.298;9.056;2022-11-20T05:58:37;5.50;;;3.10;;
47589;SDS011;33316;52.298;9.056;2022-11-20T06:01:05;5.45;;;3.28;;
47589;SDS011;33316;52.298;9.056;2022-11-20T06:03:33;5.20;;;3.13;;
47589;SDS011;33316;52.298;9.056;2022-11-20T06:06:02;6.07;;;3.30;;
47589;SDS011;33316;52.298;9.056;2022-11-20T06:08:30;5.90;;;3.40;;
47589;SDS011;33316;52.298;9.056;2022-11-20T06:10:57;5.85;;;3.20;;
47589;SDS011;33316;52.298;9.056;2022-11-20T06:13:24;4.78;;;3.35;;
47589;SDS011;33316;52.298;9.056;2022-11-20T06:15:51;3.92;;;2.72;;
47589;SDS011;33316;52.298;9.056;2022-11-20T06:18:19;6.43;;;3.22;;
47589;SDS011;33316;52.298;9.056;2022-11-20T06:20:46;5.70;;;3.20;;
47589;SDS011;33316;52.298;9.056;2022-11-20T06:23:14;4.70;;;3.08;;
47589;SDS011;33316;52.298;9.056;2022-11-20T06:25:41;4.30;;;3.17;;
47589;SDS011;33316;52.298;9.056;2022-11-20T06:28:08;4.50;;;3.30;;
47589;SDS011;33316;52.298;9.056;2022-11-20T06:30:36;6.57;;;3.22;;
47589;SDS011;33316;52.298;9.056;2022-11-20T06:33:03;6.35;;;3.42;;
47589;SDS011;33316;52.298;9.056;2022-11-20T06:35:30;6.13;;;3.15;;
47589;SDS011;33316;52.298;9.056;2022-11-20T06:37:56;6.13;;;3.35;;
47589;SDS011;33316;52.298;9.056;2022-11-20T06:40:24;5.28;;;3.05;;
47589;SDS011;33316;52.298;9.056;2022-11-20T06:42:53;6.57;;;3.58;;
47589;SDS011;33316;52.298;9.056;2022-11-20T06:45:20;4.72;;;3.50;;
47589;SDS011;33316;52.298;9.056;2022-11-20T06:47:47;5.38;;;3.75;;
47589;SDS011;33316;52.298;9.056;2022-11-20T06:50:14;5.63;;;3.58;;
47589;SDS011;33316;52.298;9.056;2022-11-20T06:52:40;5.90;;;3.22;;
47589;SDS011;33316;52.298;9.056;2022-11-20T06:55:07;5.07;;;3.42;;
47589;SDS011;33316;52.298;9.056;2022-11-20T06:57:35;6.43;;;3.65;;
47589;SDS011;33316;52.298;9.056;2022-11-20T07:00:02;5.80;;;3.47;;
47589;SDS011;33316;52.298;9.056;2022-11-20T07:02:29;5.03;;;3.22;;
47589;SDS011;33316;52.298;9.056;2022-11-20T07:04:56;5.25;;;3.40;;
47589;SDS011;33316;52.298;9.056;2022-11-20T07:07:23;4.45;;;3.25;;
47589;SDS011;33316;52.298;9.056;2022-11-20T07:09:50;6.30;;;3.60;;
47589;SDS011;33316;52.298;9.056;2022-11-20T07:12:16;5.80;;;3.72;;
47589;SDS011;33316;52.298;9.056;2022-11-20T07:14:45;6.30;;;4.18;;
47589;SDS011;33316;52.298;9.056;2022-11-20T07:17:11;8.32;;;4.60;;
47589;SDS011;33316;52.298;9.056;2022-11-20T07:19:38;7.57;;;4.55;;
47589;SDS011;33316;52.298;9.056;2022-11-20T07:22:05;7.38;;;4.50;;
47589;SDS011;33316;52.298;9.056;2022-11-20T07:24:32;6.45;;;4.30;;
47589;SDS011;33316;52.298;9.056;2022-11-20T07:26:58;6.95;;;4.35;;
47589;SDS011;33316;52.298;9.056;2022-11-20T07:29:25;6.15;;;4.13;;
47589;SDS011;33316;52.298;9.056;2022-11-20T07:31:53;8.07;;;4.50;;
47589;SDS011;33316;52.298;9.056;2022-11-20T07:34:20;7.65;;;4.50;;
47589;SDS011;33316;52.298;9.056;2022-11-20T07:36:47;8.73;;;5.13;;
47589;SDS011;33316;52.298;9.056;2022-11-20T07:39:14;8.63;;;5.18;;
47589;SDS011;33316;52.298;9.056;2022-11-20T07:41:40;9.52;;;5.25;;
47589;SDS011;33316;52.298;9.056;2022-11-20T07:44:07;8.75;;;5.38;;
47589;SDS011;33316;52.298;9.056;2022-11-20T07:46:34;7.03;;;4.75;;
47589;SDS011;33316;52.298;9.056;2022-11-20T07:49:02;6.28;;;3.88;;
47589;SDS011;33316;52.298;9.056;2022-11-20T07:51:29;5.85;;;3.47;;
47589;SDS011;33316;52.298;9.056;2022-11-20T07:53:56;5.93;;;3.92;;
47589;SDS011;33316;52.298;9.056;2022-11-20T07:56:22;7.30;;;4.57;;
47589;SDS011;33316;52.298;9.056;2022-11-20T07:58:49;8.45;;;4.50;;
47589;SDS011;33316;52.298;9.056;2022-11-20T08:01:16;7.93;;;4.60;;
47589;SDS011;33316;52.298;9.056;2022-11-20T08:03:42;8.20;;;4.55;;
47589;SDS011;33316;52.298;9.056;2022-11-20T08:06:10;6.28;;;4.18;;
47589;SDS011;33316;52.298;9.056;2022-11-20T08:08:37;6.38;;;4.00;;
47589;SDS011;33316;52.298;9.056;2022-11-20T08:11:04;9.50;;;5.55;;
47589;SDS011;33316;52.298;9.056;2022-11-20T08:13:48;9.80;;;5.25;;
47589;SDS011;33316;52.298;9.056;2022-11-20T08:16:33;7.88;;;4.97;;
47589;SDS011;33316;52.298;9.056;2022-11-20T08:18:59;6.97;;;4.65;;
47589;SDS011;33316;52.298;9.056;2022-11-20T08:21:27;6.30;;;4.80;;
47589;SDS011;33316;52.298;9.056;2022-11-20T08:23:54;8.93;;;5.10;;
47589;SDS011;33316;52.298;9.056;2022-11-20T08:26:21;7.43;;;3.80;;
47589;SDS011;33316;52.298;9.056;2022-11-20T08:28:48;7.35;;;4.25;;
47589;SDS011;33316;52.298;9.056;2022-11-20T08:31:15;8.02;;;5.18;;
47589;SDS011;33316;52.298;9.056;2022-11-20T08:33:41;7.88;;;5.10;;
47589;SDS011;33316;52.298;9.056;2022-11-20T08:36:08;6.97;;;4.53;;
47589;SDS011;33316;52.298;9.056;2022-11-20T08:38:36;6.85;;;4.10;;
47589;SDS011;33316;52.298;9.056;2022-11-20T08:41:03;6.43;;;4.25;;
47589;SDS011;33316;52.298;9.056;2022-11-20T08:43:48;6.68;;;4.05;;
47589;SDS011;33316;52.298;9.056;2022-11-20T08:46:15;5.97;;;3.90;;
47589;SDS011;33316;52.298;9.056;2022-11-20T08:48:42;6.95;;;4.00;;
47589;SDS011;33316;52.298;9.056;2022-11-20T08:51:10;6.13;;;4.65;;
47589;SDS011;33316;52.298;9.056;2022-11-20T08:53:38;7.13;;;4.65;;
47589;SDS011;33316;52.298;9.056;2022-11-20T08:56:06;7.95;;;4.70;;
47589;SDS011;33316;52.298;9.056;2022-11-20T08:58:34;7.88;;;5.10;;
47589;SDS011;33316;52.298;9.056;2022-11-20T09:01:01;6.72;;;4.70;;
47589;SDS011;33316;52.298;9.056;2022-11-20T09:03:28;6.82;;;4.68;;
47589;SDS011;33316;52.298;9.056;2022-11-20T09:05:56;7.90;;;4.88;;
47589;SDS011;33316;52.298;9.056;2022-11-20T09:08:25;6.55;;;4.82;;
47589;SDS011;33316;52.298;9.056;2022-11-20T09:10:53;7.45;;;4.53;;
47589;SDS011;33316;52.298;9.056;2022-11-20T09:13:21;6.43;;;4.00;;
47589;SDS011;33316;52.298;9.056;2022-11-20T09:15:52;6.85;;;4.30;;
47589;SDS011;33316;52.298;9.056;2022-11-20T09:18:19;7.15;;;4.82;;
47589;SDS011;33316;52.298;9.056;2022-11-20T09:20:46;6.60;;;4.10;;
47589;SDS011;33316;52.298;9.056;2022-11-20T09:23:13;7.00;;;4.32;;
47589;SDS011;33316;52.298;9.056;2022-11-20T09:25:40;6.63;;;4.40;;
47589;SDS011;33316;52.298;9.056;2022-11-20T09:28:09;6.47;;;3.60;;
47589;SDS011;33316;52.298;9.056;2022-11-20T09:30:36;6.53;;;3.80;;
47589;SDS011;33316;52.298;9.056;2022-11-20T09:33:03;6.93;;;4.10;;
47589;SDS011;33316;52.298;9.056;2022-11-20T09:35:30;7.15;;;3.90;;
47589;SDS011;33316;52.298;9.056;2022-11-20T09:37:57;5.35;;;3.72;;
47589;SDS011;33316;52.298;9.056;2022-11-20T09:40:25;7.20;;;3.88;;
47589;SDS011;33316;52.298;9.056;2022-11-20T09:42:55;6.85;;;4.65;;
47589;SDS011;33316;52.298;9.056;2022-11-20T09:45:30;7.68;;;4.50;;
47589;SDS011;33316;52.298;9.056;2022-11-20T09:51:13;6.03;;;4.18;;
47589;SDS011;33316;52.298;9.056;2022-11-20T09:53:52;5.90;;;4.40;;
47589;SDS011;33316;52.298;9.056;2022-11-20T09:56:33;6.57;;;4.40;;
47589;SDS011;33316;52.298;9.056;2022-11-20T09:59:04;7.25;;;4.57;;
47589;SDS011;33316;52.298;9.056;2022-11-20T10:01:35;8.13;;;4.97;;
47589;SDS011;33316;52.298;9.056;2022-11-20T10:04:06;9.05;;;5.00;;
47589;SDS011;33316;52.298;9.056;2022-11-20T10:06:39;8.57;;;4.88;;
47589;SDS011;33316;52.298;9.056;2022-11-20T10:09:14;7.47;;;4.85;;
47589;SDS011;33316;52.298;9.056;2022-11-20T10:11:48;8.25;;;5.13;;
47589;SDS011;33316;52.298;9.056;2022-11-20T10:14:26;8.18;;;5.20;;
47589;SDS011;33316;52.298;9.056;2022-11-20T10:17:03;9.15;;;5.85;;
47589;SDS011;33316;52.298;9.056;2022-11-20T10:19:45;11.50;;;6.28;;
47589;SDS011;33316;52.298;9.056;2022-11-20T10:22:26;10.23;;;6.25;;
47589;SDS011;33316;52.298;9.056;2022-11-20T10:25:04;9.63;;;6.40;;
47589;SDS011;33316;52.298;9.056;2022-11-20T10:30:37;10.68;;;7.03;;
47589;SDS011;33316;52.298;9.056;2022-11-20T10:33:10;12.47;;;7.07;;
47589;SDS011;33316;52.298;9.056;2022-11-20T10:35:42;10.63;;;6.70;;
47589;SDS011;33316;52.298;9.056;2022-11-20T10:38:13;10.13;;;6.18;;
47589;SDS011;33316;52.298;9.056;2022-11-20T10:40:44;10.13;;;5.80;;
47589;SDS011;33316;52.298;9.056;2022-11-20T10:43:14;7.97;;;4.43;;
47589;SDS011;33316;52.298;9.056;2022-11-20T10:45:49;10.23;;;6.78;;
47589;SDS011;33316;52.298;9.056;2022-11-20T10:48:22;11.55;;;5.88;;
47589;SDS011;33316;52.298;9.056;2022-11-20T10:51:01;9.25;;;5.63;;
47589;SDS011;33316;52.298;9.056;2022-11-20T10:53:40;7.68;;;5.32;;
47589;SDS011;33316;52.298;9.056;2022-11-20T10:56:16;10.98;;;6.30;;
47589;SDS011;33316;52.298;9.056;2022-11-20T10:58:48;10.73;;;6.53;;
47589;SDS011;33316;52.298;9.056;2022-11-20T11:01:39;10.55;;;6.07;;
47589;SDS011;33316;52.298;9.056;2022-11-20T11:04:15;11.30;;;6.97;;
47589;SDS011;33316;52.298;9.056;2022-11-20T11:06:52;12.98;;;7.43;;
47589;SDS011;33316;52.298;9.056;2022-11-20T11:09:26;11.02;;;6.57;;
47589;SDS011;33316;52.298;9.056;2022-11-20T11:11:58;11.48;;;6.50;;
47589;SDS011;33316;52.298;9.056;2022-11-20T11:14:25;11.35;;;6.40;;
47589;SDS011;33316;52.298;9.056;2022-11-20T11:16:52;11.30;;;6.65;;
47589;SDS011;33316;52.298;9.056;2022-11-20T11:19:22;9.45;;;5.97;;
47589;SDS011;33316;52.298;9.056;2022-11-20T11:21:49;9.70;;;6.90;;
47589;SDS011;33316;52.298;9.056;2022-11-20T11:24:20;12.15;;;7.20;;
47589;SDS011;33316;52.298;9.056;2022-11-20T11:26:55;11.80;;;7.93;;
47589;SDS011;33316;52.298;9.056;2022-11-20T11:29:24;14.30;;;8.45;;
47589;SDS011;33316;52.298;9.056;2022-11-20T11:32:02;11.85;;;6.97;;
47589;SDS011;33316;52.298;9.056;2022-11-20T11:34:32;12.27;;;6.38;;
47589;SDS011;33316;52.298;9.056;2022-11-20T11:36:59;11.35;;;6.75;;
47589;SDS011;33316;52.298;9.056;2022-11-20T11:39:28;10.23;;;7.03;;
47589;SDS011;33316;52.298;9.056;2022-11-20T11:41:56;11.52;;;7.05;;
47589;SDS011;33316;52.298;9.056;2022-11-20T11:44:24;10.88;;;6.88;;
47589;SDS011;33316;52.298;9.056;2022-11-20T11:47:17;10.20;;;6.57;;
47589;SDS011;33316;52.298;9.056;2022-11-20T11:49:49;12.05;;;7.18;;
47589;SDS011;33316;52.298;9.056;2022-11-20T11:52:27;11.35;;;7.18;;
47589;SDS011;33316;52.298;9.056;2022-11-20T11:54:55;12.23;;;7.60;;
47589;SDS011;33316;52.298;9.056;2022-11-20T11:57:28;11.85;;;7.45;;
47589;SDS011;33316;52.298;9.056;2022-11-20T12:00:01;12.13;;;7.40;;
47589;SDS011;33316;52.298;9.056;2022-11-20T12:02:35;10.68;;;5.82;;
47589;SDS011;33316;52.298;9.056;2022-11-20T12:05:08;10.40;;;6.43;;
47589;SDS011;33316;52.298;9.056;2022-11-20T12:07:43;10.02;;;5.97;;
47589;SDS011;33316;52.298;9.056;2022-11-20T12:10:22;10.48;;;6.07;;
47589;SDS011;33316;52.298;9.056;2022-11-20T12:12:59;9.30;;;5.93;;
47589;SDS011;33316;52.298;9.056;2022-11-20T12:15:30;9.77;;;6.47;;
47589;SDS011;33316;52.298;9.056;2022-11-20T12:18:00;9.60;;;5.80;;
47589;SDS011;33316;52.298;9.056;2022-11-20T12:20:30;10.98;;;6.53;;
47589;SDS011;33316;52.298;9.056;2022-11-20T12:23:01;10.88;;;6.72;;
47589;SDS011;33316;52.298;9.056;2022-11-20T12:25:36;11.35;;;6.53;;
47589;SDS011;33316;52.298;9.056;2022-11-20T12:31:15;10.73;;;6.25;;
47589;SDS011;33316;52.298;9.056;2022-11-20T12:34:08;10.88;;;6.00;;
47589;SDS011;33316;52.298;9.056;2022-11-20T12:36:49;8.63;;;5.85;;
47589;SDS011;33316;52.298;9.056;2022-11-20T12:39:31;9.50;;;6.13;;
47589;SDS011;33316;52.298;9.056;2022-11-20T12:42:06;10.45;;;5.93;;
47589;SDS011;33316;52.298;9.056;2022-11-20T12:45:14;9.90;;;6.60;;
47589;SDS011;33316;52.298;9.056;2022-11-20T12:48:13;9.73;;;5.85;;
47589;SDS011;33316;52.298;9.056;2022-11-20T12:50:52;7.68;;;5.20;;
47589;SDS011;33316;52.298;9.056;2022-11-20T12:53:36;9.33;;;5.53;;
47589;SDS011;33316;52.298;9.056;2022-11-20T12:56:11;9.20;;;5.68;;
47589;SDS011;33316;52.298;9.056;2022-11-20T12:58:50;8.70;;;5.75;;
47589;SDS011;33316;52.298;9.056;2022-11-20T13:01:28;9.98;;;6.05;;
47589;SDS011;33316;52.298;9.056;2022-11-20T13:04:13;9.90;;;5.95;;
47589;SDS011;33316;52.298;9.056;2022-11-20T13:09:18;8.00;;;5.05;;
47589;SDS011;33316;52.298;9.056;2022-11-20T13:11:48;8.80;;;5.68;;
47589;SDS011;33316;52.298;9.056;2022-11-20T13:14:30;10.65;;;5.45;;
47589;SDS011;33316;52.298;9.056;2022-11-20T13:17:04;8.55;;;5.45;;
47589;SDS011;33316;52.298;9.056;2022-11-20T13:19:36;9.10;;;5.97;;
47589;SDS011;33316;52.298;9.056;2022-11-20T13:22:03;10.60;;;6.00;;
47589;SDS011;33316;52.298;9.056;2022-11-20T13:24:31;9.57;;;5.28;;
47589;SDS011;33316;52.298;9.056;2022-11-20T13:27:18;7.28;;;4.72;;
47589;SDS011;33316;52.298;9.056;2022-11-20T13:29:47;7.70;;;4.28;;
47589;SDS011;33316;52.298;9.056;2022-11-20T13:32:26;6.30;;;4.25;;
47589;SDS011;33316;52.298;9.056;2022-11-20T13:34:57;6.70;;;4.55;;
47589;SDS011;33316;52.298;9.056;2022-11-20T13:37:29;6.80;;;4.53;;
47589;SDS011;33316;52.298;9.056;2022-11-20T13:40:11;8.18;;;5.00;;
47589;SDS011;33316;52.298;9.056;2022-11-20T13:42:40;6.95;;;4.57;;
47589;SDS011;33316;52.298;9.056;2022-11-20T13:45:20;7.75;;;5.05;;
47589;SDS011;33316;52.298;9.056;2022-11-20T13:47:49;7.07;;;4.93;;
47589;SDS011;33316;52.298;9.056;2022-11-20T13:50:17;8.82;;;5.25;;
47589;SDS011;33316;52.298;9.056;2022-11-20T13:52:46;9.15;;;6.03;;
47589;SDS011;33316;52.298;9.056;2022-11-20T13:55:26;7.65;;;5.50;;
47589;SDS011;33316;52.298;9.056;2022-11-20T13:58:06;8.05;;;5.20;;
47589;SDS011;33316;52.298;9.056;2022-11-20T14:00:47;7.57;;;4.70;;
47589;SDS011;33316;52.298;9.056;2022-11-20T14:03:18;7.72;;;4.57;;
47589;SDS011;33316;52.298;9.056;2022-11-20T14:05:49;7.75;;;4.70;;
47589;SDS011;33316;52.298;9.056;2022-11-20T14:08:23;8.63;;;4.90;;
47589;SDS011;33316;52.298;9.056;2022-11-20T14:11:12;8.98;;;5.60;;
47589;SDS011;33316;52.298;9.056;2022-11-20T14:13:51;8.38;;;5.43;;
47589;SDS011;33316;52.298;9.056;2022-11-20T14:16:23;9.82;;;5.72;;
47589;SDS011;33316;52.298;9.056;2022-11-20T14:18:51;9.02;;;5.85;;
47589;SDS011;33316;52.298;9.056;2022-11-20T14:21:22;8.90;;;5.40;;
47589;SDS011;33316;52.298;9.056;2022-11-20T14:23:52;9.18;;;5.63;;
47589;SDS011;33316;52.298;9.056;2022-11-20T14:26:21;8.13;;;5.05;;
47589;SDS011;33316;52.298;9.056;2022-11-20T14:28:48;10.85;;;5.28;;
47589;SDS011;33316;52.298;9.056;2022-11-20T14:31:18;7.63;;;4.72;;
47589;SDS011;33316;52.298;9.056;2022-11-20T14:33:49;8.45;;;5.07;;
47589;SDS011;33316;52.298;9.056;2022-11-20T14:36:17;9.52;;;5.85;;
47589;SDS011;33316;52.298;9.056;2022-11-20T14:38:46;7.95;;;5.18;;
47589;SDS011;33316;52.298;9.056;2022-11-20T14:41:16;7.78;;;4.63;;
47589;SDS011;33316;52.298;9.056;2022-11-20T14:43:47;8.48;;;5.20;;
47589;SDS011;33316;52.298;9.056;2022-11-20T14:46:17;7.93;;;4.78;;
47589;SDS011;33316;52.298;9.056;2022-11-20T14:48:44;7.25;;;4.65;;
47589;SDS011;33316;52.298;9.056;2022-11-20T14:51:22;8.07;;;5.22;;
47589;SDS011;33316;52.298;9.056;2022-11-20T14:53:53;9.60;;;6.30;;
47589;SDS011;33316;52.298;9.056;2022-11-20T14:56:20;10.00;;;6.00;;
47589;SDS011;33316;52.298;9.056;2022-11-20T14:58:56;10.10;;;5.85;;
47589;SDS011;33316;52.298;9.056;2022-11-20T15:01:26;10.55;;;6.07;;
47589;SDS011;33316;52.298;9.056;2022-11-20T15:03:59;7.88;;;5.40;;
47589;SDS011;33316;52.298;9.056;2022-11-20T15:06:27;7.88;;;5.20;;
47589;SDS011;33316;52.298;9.056;2022-11-20T15:08:56;8.10;;;5.25;;
47589;SDS011;33316;52.298;9.056;2022-11-20T15:11:25;7.65;;;5.05;;
47589;SDS011;33316;52.298;9.056;2022-11-20T15:13:56;8.88;;;5.20;;
47589;SDS011;33316;52.298;9.056;2022-11-20T15:16:27;8.88;;;6.28;;
47589;SDS011;33316;52.298;9.056;2022-11-20T15:18:54;8.55;;;5.50;;
47589;SDS011;33316;52.298;9.056;2022-11-20T15:21:21;10.85;;;5.60;;
47589;SDS011;33316;52.298;9.056;2022-11-20T15:23:48;9.98;;;5.93;;